Time;durP1;ratioP1;P1;durP2;ratioP2;P2;SDS_P1;SDS_P2;PMS_P1;PMS_P2;Temp;Humidity;BMP_temperature;BMP_pressure;BME280_temperature;BME280_humidity;BME280_pressure;Samples;Min_cycle;Max_cycle;Signal;HPM_P1;HPM_P2
2022/08/17 00:01:07;;;;;;;33.58;28.38;;;;;;;23.39;60.55;100807.09;5110891;28;20111;-60
2022/08/17 00:03:36;;;;;;;32.78;28.58;;;;;;;23.49;60.28;100813.09;5110532;28;20589;-60
2022/08/17 00:06:17;;;;;;;32.42;28.50;;;;;;;23.40;60.29;100806.88;5109999;28;20485;-61
2022/08/17 00:08:52;;;;;;;30.33;27.30;;;;;;;23.50;60.25;100803.91;5104572;28;20075;-61
2022/08/17 00:11:23;;;;;;;32.92;29.52;;;;;;;23.49;60.53;100799.53;5110598;28;20039;-61
2022/08/17 00:13:55;;;;;;;33.22;29.90;;;;;;;23.34;60.85;100799.47;5109956;28;20041;-61
2022/08/17 00:16:30;;;;;;;37.83;33.40;;;;;;;23.43;60.76;100792.94;5110456;28;20449;-60
2022/08/17 00:19:03;;;;;;;41.17;35.65;;;;;;;23.27;61.49;100783.09;5106867;28;20044;-61
2022/08/17 00:21:29;;;;;;;39.08;35.22;;;;;;;23.35;61.47;100785.75;5110347;28;20064;-61
2022/08/17 00:23:55;;;;;;;38.53;34.20;;;;;;;23.20;62.00;100778.53;5110294;28;20039;-60
2022/08/17 00:26:22;;;;;;;38.10;34.00;;;;;;;23.18;62.12;100777.88;5093205;28;20031;-60
2022/08/17 00:28:48;;;;;;;36.50;32.80;;;;;;;23.19;61.98;100774.16;5110180;28;20039;-61
2022/08/17 00:31:14;;;;;;;39.17;32.58;;;;;;;23.19;62.22;100771.44;5128615;27;20118;-61
2022/08/17 00:33:41;;;;;;;36.80;32.83;;;;;;;23.27;62.27;100777.66;5112116;28;20110;-61
2022/08/17 00:36:07;;;;;;;37.50;33.75;;;;;;;23.26;62.17;100777.81;5111118;28;20022;-61
2022/08/17 00:38:33;;;;;;;37.85;33.70;;;;;;;23.29;62.07;100772.03;5112265;28;20402;-61
2022/08/17 00:41:04;;;;;;;37.10;33.35;;;;;;;23.22;62.36;100765.66;5112173;28;20129;-60
2022/08/17 00:43:35;;;;;;;36.35;32.55;;;;;;;23.27;62.36;100768.66;5111546;28;20023;-61
2022/08/17 00:46:06;;;;;;;39.22;33.95;;;;;;;23.31;62.29;100761.84;5112375;28;20016;-61
2022/08/17 00:48:36;;;;;;;38.42;34.25;;;;;;;23.26;62.21;100766.97;5111972;28;20199;-61
2022/08/17 00:51:11;;;;;;;37.92;34.15;;;;;;;23.19;62.62;100763.31;5112647;28;20023;-61
2022/08/17 00:53:41;;;;;;;40.40;35.33;;;;;;;23.18;62.49;100758.88;5111976;28;20393;-61
2022/08/17 00:56:16;;;;;;;39.95;35.65;;;;;;;23.20;62.63;100768.53;5110910;28;20122;-61
2022/08/17 00:58:41;;;;;;;39.28;35.38;;;;;;;23.12;62.76;100760.47;5110541;28;20024;-60
2022/08/17 01:01:09;;;;;;;39.22;34.90;;;;;;;23.18;62.69;100767.88;5127930;28;20422;-60
2022/08/17 01:03:36;;;;;;;38.65;34.67;;;;;;;23.20;62.52;100763.09;5111800;28;20445;-60
2022/08/17 01:06:04;;;;;;;37.53;33.65;;;;;;;23.11;62.68;100762.31;5110729;28;20027;-60
2022/08/17 01:08:31;;;;;;;36.33;32.58;;;;;;;23.16;62.90;100763.66;5112205;28;20020;-60
2022/08/17 01:11:01;;;;;;;37.17;33.33;;;;;;;23.23;62.58;100765.44;5112025;28;20030;-60
2022/08/17 01:13:31;;;;;;;36.42;32.58;;;;;;;23.22;62.31;100743.94;5110087;28;20033;-60
2022/08/17 01:16:06;;;;;;;36.03;32.50;;;;;;;23.15;62.66;100757.41;5111994;28;20434;-60
2022/08/17 01:18:33;;;;;;;39.60;32.75;;;;;;;23.21;62.41;100756.66;5114108;28;20019;-60
2022/08/17 01:21:03;;;;;;;35.33;31.65;;;;;;;23.13;63.12;100756.72;5116113;28;20110;-60
2022/08/17 01:23:29;;;;;;;36.92;32.97;;;;;;;23.03;63.47;100746.13;5115783;28;20461;-60
2022/08/17 01:25:58;;;;;;;36.83;33.13;;;;;;;23.16;63.27;100750.09;5116037;28;20096;-61
2022/08/17 01:28:25;;;;;;;;;;;;;;;23.33;61.18;100748.94;5115951;28;20024;-60
2022/08/17 01:30:53;;;;;;;34.17;30.70;;;;;;;23.17;62.89;100741.75;5115598;28;20361;-61
2022/08/17 01:33:19;;;;;;;33.17;29.67;;;;;;;23.03;63.31;100739.81;5115603;28;20367;-61
2022/08/17 01:35:47;;;;;;;33.70;30.42;;;;;;;22.86;64.22;100739.94;5116137;28;20038;-61
2022/08/17 01:38:12;;;;;;;33.63;30.13;;;;;;;22.94;64.14;100739.00;5115816;28;20049;-61
2022/08/17 01:40:45;;;;;;;33.40;30.02;;;;;;;23.00;63.55;100737.47;5114342;28;20031;-61
2022/08/17 01:43:24;;;;;;;35.70;32.13;;;;;;;22.86;63.93;100734.50;5113883;28;20023;-61
2022/08/17 01:45:54;;;;;;;;;;;;;;;23.11;62.13;100731.63;5115863;28;20111;-61
2022/08/17 01:48:19;;;;;;;33.63;30.20;;;;;;;22.98;63.56;100726.00;5114188;28;19907;-60
2022/08/17 01:50:47;;;;;;;36.25;30.23;;;;;;;22.88;63.54;100724.31;5097352;28;20047;-61
2022/08/17 01:53:21;;;;;;;34.33;30.73;;;;;;;22.90;63.72;100724.97;5114097;28;20030;-61
2022/08/17 01:55:55;;;;;;;34.25;29.65;;;;;;;22.94;63.55;100730.88;5148328;27;20450;-61
2022/08/17 01:58:21;;;;;;;33.88;29.25;;;;;;;22.92;63.62;100727.50;5114916;28;20444;-61
2022/08/17 02:00:50;;;;;;;35.22;31.58;;;;;;;22.73;64.50;100725.25;5115281;28;20035;-61
2022/08/17 02:03:21;;;;;;;33.33;30.00;;;;;;;22.79;64.07;100728.09;5115378;28;20382;-61
2022/08/17 02:05:52;;;;;;;32.45;29.25;;;;;;;22.84;64.22;100724.84;5115373;28;20019;-61
2022/08/17 02:08:19;;;;;;;34.08;30.67;;;;;;;22.78;64.76;100726.41;5115036;28;20028;-61
2022/08/17 02:10:45;;;;;;;33.30;30.10;;;;;;;22.62;65.05;100715.69;5115297;28;20058;-61
2022/08/17 02:13:11;;;;;;;35.55;31.20;;;;;;;22.74;64.72;100719.69;5113651;28;20027;-60
2022/08/17 02:15:37;;;;;;;33.38;29.38;;;;;;;22.69;64.36;100716.66;5115138;28;20506;-61
2022/08/17 02:18:06;;;;;;;34.92;31.33;;;;;;;22.58;65.25;100720.59;5114954;28;20023;-60
2022/08/17 02:20:32;;;;;;;33.50;30.15;;;;;;;22.61;64.98;100716.69;5114906;28;20062;-61
2022/08/17 02:23:01;;;;;;;33.45;29.92;;;;;;;22.72;64.75;100721.72;5113351;28;20062;-61
2022/08/17 02:25:29;;;;;;;36.33;30.77;;;;;;;22.56;65.17;100732.63;5114857;28;20103;-61
2022/08/17 02:27:55;;;;;;;35.67;31.95;;;;;;;22.64;64.79;100719.88;5113979;28;20023;-61
2022/08/17 02:30:20;;;;;;;33.47;30.20;;;;;;;22.62;64.98;100718.41;5114220;28;20037;-61
2022/08/17 02:32:45;;;;;;;34.55;31.13;;;;;;;22.54;65.13;100716.56;5114431;28;20114;-60
2022/08/17 02:35:12;;;;;;;34.90;31.33;;;;;;;22.53;65.31;100712.19;5114824;28;20020;-60
2022/08/17 02:37:40;;;;;;;35.35;31.75;;;;;;;22.46;65.53;100713.91;5114516;28;20127;-61
2022/08/17 02:40:09;;;;;;;35.40;32.05;;;;;;;22.42;65.74;100716.13;5114655;28;20106;-60
2022/08/17 02:42:37;;;;;;;35.78;32.38;;;;;;;22.33;65.65;100703.63;5112885;28;20032;-61
2022/08/17 02:45:06;;;;;;;35.45;32.05;;;;;;;22.39;65.67;100702.09;5114262;28;20028;-61
2022/08/17 02:47:32;;;;;;;36.95;33.25;;;;;;;22.32;65.95;100707.34;5114385;28;20019;-60
2022/08/17 02:49:58;;;;;;;36.80;32.95;;;;;;;22.33;65.93;100702.81;5113220;28;20493;-60
2022/08/17 02:52:32;;;;;;;38.13;34.15;;;;;;;22.26;66.17;100705.34;5114209;28;20035;-61
2022/08/17 02:54:58;;;;;;;39.47;35.50;;;;;;;;;;5114317;28;20028;-61
2022/08/17 02:57:23;;;;;;;39.53;35.75;;;;;;;22.20;66.62;100698.78;5113859;28;20402;-61
2022/08/17 02:59:49;;;;;;;38.38;34.58;;;;;;;22.28;66.49;100697.91;5112088;28;20127;-60
2022/08/17 03:02:15;;;;;;;40.80;36.60;;;;;;;22.20;66.79;100700.63;5113994;28;20015;-60
2022/08/17 03:04:40;;;;;;;41.10;36.67;;;;;;;22.17;66.83;100698.28;5095748;28;20132;-60
2022/08/17 03:07:06;;;;;;;39.22;35.42;;;;;;;22.13;67.30;100694.22;5112805;28;20513;-60
2022/08/17 03:09:31;;;;;;;42.45;38.15;;;;;;;22.13;67.12;100697.75;5113834;28;20034;-60
2022/08/17 03:12:11;;;;;;;40.65;36.60;;;;;;;22.14;66.71;100685.06;5113914;28;20062;-61
2022/08/17 03:14:41;;;;;;;41.13;36.58;;;;;;;22.00;67.76;100681.22;5113470;28;20379;-61
2022/08/17 03:17:08;;;;;;;;;;;;;;;22.29;64.83;100688.72;5112997;28;20496;-61
2022/08/17 03:19:35;;;;;;;41.92;37.55;;;;;;;22.08;67.24;100688.47;5113787;28;19908;-60
2022/08/17 03:22:07;;;;;;;42.35;37.85;;;;;;;22.06;67.41;100691.38;5113778;28;20034;-60
2022/08/17 03:24:32;;;;;;;42.00;37.90;;;;;;;21.96;67.74;100685.31;5113559;28;20031;-60
2022/08/17 03:26:58;;;;;;;43.08;38.40;;;;;;;21.98;67.97;100691.41;5113285;28;20248;-60
2022/08/17 03:29:24;;;;;;;42.47;38.00;;;;;;;21.90;68.24;100694.13;5111911;28;20030;-60
2022/08/17 03:31:52;;;;;;;43.30;39.13;;;;;;;21.95;68.00;100689.88;5129229;27;20398;-60
2022/08/17 03:34:17;;;;;;;42.40;38.13;;;;;;;21.96;68.12;100694.28;5112046;28;20479;-60
2022/08/17 03:36:43;;;;;;;42.47;38.13;;;;;;;21.98;67.98;100696.81;5112405;28;20034;-60
2022/08/17 03:39:11;;;;;;;42.97;38.40;;;;;;;21.84;68.45;100694.84;5113418;28;20032;-61
2022/08/17 03:41:36;;;;;;;41.25;37.20;;;;;;;21.93;68.11;100696.50;5112447;28;20031;-60
2022/08/17 03:44:03;;;;;;;40.53;36.40;;;;;;;21.83;68.75;100701.28;5111318;28;20080;-61
2022/08/17 03:57:30;;;;;;;40.10;36.28;;;;;;;21.83;68.93;100720.22;5112595;28;20120;-60
2022/08/17 03:59:56;;;;;;;42.85;38.38;;;;;;;21.74;69.31;100720.25;5112803;28;20023;-60
2022/08/17 04:02:32;;;;;;;39.03;35.13;;;;;;;21.74;69.16;100727.53;5112832;28;20112;-61
2022/08/17 04:04:59;;;;;;;40.40;36.35;;;;;;;21.74;69.13;100722.13;5112959;28;20023;-60
2022/08/17 04:07:27;;;;;;;40.20;36.28;;;;;;;21.85;68.68;100727.13;5112800;28;20020;-60
2022/08/17 04:09:56;;;;;;;42.03;37.83;;;;;;;21.86;68.79;100745.09;5112905;28;20094;-60
2022/08/17 04:12:23;;;;;;;41.78;37.40;;;;;;;21.82;69.14;100759.13;5112424;28;20310;-61
2022/08/17 04:14:49;;;;;;;43.95;38.95;;;;;;;21.68;69.92;100764.25;5112352;28;20393;-60
2022/08/17 04:17:14;;;;;;;46.53;41.85;;;;;;;21.59;70.51;100759.88;5112776;28;20115;-60
2022/08/17 04:19:40;;;;;;;46.20;41.72;;;;;;;21.52;70.91;100756.97;5111094;28;20035;-61
2022/08/17 04:22:08;;;;;;;45.63;40.80;;;;;;;21.61;70.90;100754.25;5111423;28;20031;-60
2022/08/17 04:24:34;;;;;;;43.67;39.40;;;;;;;21.56;71.36;100754.78;5112470;28;20493;-60
2022/08/17 04:27:00;;;;;;;44.22;39.70;;;;;;;21.55;71.66;100761.19;5111180;28;20027;-61
2022/08/17 04:29:26;;;;;;;46.45;41.50;;;;;;;21.41;72.54;100770.00;5110609;28;20024;-61
2022/08/17 04:31:52;;;;;;;45.38;40.20;;;;;;;21.47;72.58;100767.50;5112415;28;20026;-61
2022/08/17 04:34:18;;;;;;;43.85;39.17;;;;;;;21.52;72.12;100780.50;5093840;28;20031;-60
2022/08/17 04:36:43;;;;;;;42.80;38.83;;;;;;;21.51;72.41;100801.31;5112644;28;20134;-61
2022/08/17 04:39:09;;;;;;;46.13;41.60;;;;;;;21.35;72.84;100809.38;5112123;28;20074;-60
2022/08/17 04:44:19;;;;;;;43.83;39.35;;;;;;;21.45;73.12;100801.97;5110983;28;20051;-61
2022/08/17 04:46:44;;;;;;;43.38;39.10;;;;;;;21.38;73.10;100803.66;5112441;28;20450;-61
2022/08/17 04:49:13;;;;;;;43.80;39.40;;;;;;;21.40;73.45;100798.94;5128044;27;20046;-60
2022/08/17 04:51:43;;;;;;;42.45;38.33;;;;;;;21.42;73.27;100809.59;5110536;28;20111;-60
2022/08/17 04:54:12;;;;;;;44.83;40.35;;;;;;;21.48;73.35;100796.22;5111777;28;20466;-61
2022/08/17 04:56:38;;;;;;;42.58;38.20;;;;;;;21.43;73.46;100814.00;5111838;28;20055;-61
2022/08/17 04:59:08;;;;;;;42.60;38.22;;;;;;;21.51;73.21;100795.06;5111694;28;20035;-61
2022/08/17 05:01:39;;;;;;;42.90;38.70;;;;;;;21.49;73.58;100791.66;5110659;28;20133;-60
2022/08/17 05:04:11;;;;;;;42.00;37.63;;;;;;;21.58;72.97;100790.63;5111887;28;20474;-61
2022/08/17 05:06:36;;;;;;;44.00;39.53;;;;;;;21.55;73.21;100793.69;5112099;28;20019;-60
2022/08/17 05:09:03;;;;;;;42.75;38.45;;;;;;;21.49;73.75;100791.66;5110213;28;20036;-60
2022/08/17 05:11:29;;;;;;;44.65;39.70;;;;;;;21.46;74.04;100778.47;5093843;28;20035;-61
2022/08/17 05:13:55;;;;;;;42.17;37.85;;;;;;;21.45;74.49;100780.34;5110168;28;20023;-60
2022/08/17 05:16:23;;;;;;;42.17;37.33;;;;;;;21.44;74.70;100784.06;5111667;28;20466;-60
2022/08/17 05:18:48;;;;;;;42.13;37.70;;;;;;;21.40;74.77;100787.25;5112029;28;20024;-60
2022/08/17 05:21:15;;;;;;;41.83;37.53;;;;;;;21.46;74.40;100792.00;5112204;28;20367;-60
2022/08/17 05:23:44;;;;;;;42.80;38.60;;;;;;;21.59;74.06;100800.47;5111563;28;20020;-60
2022/08/17 05:26:17;;;;;;;40.83;36.60;;;;;;;21.61;74.35;100798.41;5111793;28;20359;-61
2022/08/17 05:28:43;;;;;;;41.80;37.55;;;;;;;21.56;74.60;100789.97;5111454;28;20098;-60
2022/08/17 05:31:09;;;;;;;39.97;35.97;;;;;;;21.55;74.62;100782.84;5111792;28;20078;-61
2022/08/17 05:33:40;;;;;;;40.22;36.17;;;;;;;21.52;74.69;100781.34;5111599;28;20527;-61
2022/08/17 05:36:08;;;;;;;38.80;35.05;;;;;;;21.61;74.62;100778.63;5110482;28;20058;-60
2022/08/17 05:38:34;;;;;;;38.00;34.30;;;;;;;21.60;74.32;100779.66;5111373;28;20038;-60
2022/08/17 05:41:04;;;;;;;37.95;34.08;;;;;;;21.57;75.10;100783.53;5110486;28;20393;-61
2022/08/17 05:43:32;;;;;;;37.67;33.85;;;;;;;21.65;74.33;100782.66;5110931;28;20055;-61
2022/08/17 05:46:19;;;;;;;39.03;34.92;;;;;;;21.71;73.67;100784.72;5111641;28;20442;-60
2022/08/17 05:48:48;;;;;;;38.15;34.20;;;;;;;21.69;73.92;100778.63;5110523;28;20051;-60
2022/08/17 05:51:16;;;;;;;36.95;33.13;;;;;;;21.71;74.31;100788.28;5110650;28;20050;-61
2022/08/17 05:53:48;;;;;;;37.22;33.35;;;;;;;21.73;74.23;100783.50;5109973;28;20075;-61
2022/08/17 05:56:21;;;;;;;35.45;31.35;;;;;;;21.84;73.82;100781.47;5111496;28;20521;-60
2022/08/17 05:59:12;;;;;;;33.17;29.95;;;;;;;21.93;73.62;100788.56;5111079;28;20042;-60
2022/08/17 06:02:24;;;;;;;33.03;29.92;;;;;;;22.05;72.49;100787.19;5111562;28;20030;-60
2022/08/17 06:05:11;;;;;;;32.33;29.05;;;;;;;22.14;72.07;100802.41;5051280;28;20028;-60
2022/08/17 06:08:08;;;;;;;31.15;27.55;;;;;;;22.22;71.49;100799.69;5114653;28;20096;-61
2022/08/17 06:10:53;;;;;;;30.33;27.50;;;;;;;;;;5113970;28;20390;-61
2022/08/17 06:13:30;;;;;;;30.15;27.05;;;;;;;22.22;71.72;100796.16;5113152;28;20027;-60
2022/08/17 06:15:58;;;;;;;30.25;27.15;;;;;;;;;;5113680;28;20032;-60
2022/08/17 06:18:29;;;;;;;29.85;26.77;;;;;;;22.27;71.44;100795.63;5114840;28;20031;-60
2022/08/17 06:21:03;;;;;;;30.33;27.15;;;;;;;22.31;70.89;100791.53;5114674;28;20035;-60
2022/08/17 06:23:42;;;;;;;29.60;26.63;;;;;;;22.28;70.82;100803.56;5114691;27;20481;-60
2022/08/17 06:26:16;;;;;;;30.90;27.40;;;;;;;22.32;71.04;100813.03;5113625;28;20020;-60
2022/08/17 06:28:53;;;;;;;32.33;27.58;;;;;;;22.34;71.56;100813.72;5114489;28;20055;-60
2022/08/17 06:31:28;;;;;;;31.00;27.88;;;;;;;22.19;71.65;100815.47;5114661;28;20030;-61
2022/08/17 06:33:56;;;;;;;29.13;26.17;;;;;;;22.17;71.40;100820.19;5114566;28;20039;-60
2022/08/17 06:36:49;;;;;;;31.05;27.98;;;;;;;22.14;71.91;100831.34;5112976;28;20026;-61
2022/08/17 06:39:37;;;;;;;29.10;25.75;;;;;;;21.92;71.74;100836.47;5114704;28;20031;-60
2022/08/17 06:42:43;;;;;;;27.52;24.83;;;;;;;21.85;72.37;100831.91;5114660;28;20023;-60
2022/08/17 06:45:12;;;;;;;26.73;24.05;;;;;;;21.79;72.55;100828.00;5092232;28;20039;-60
2022/08/17 06:47:57;;;;;;;27.08;24.23;;;;;;;21.82;72.58;100830.38;5112904;28;20034;-60
2022/08/17 06:50:22;;;;;;;25.45;22.92;;;;;;;21.89;71.61;100834.13;5114189;28;20360;-60
2022/08/17 06:53:04;;;;;;;26.83;24.15;;;;;;;21.87;71.89;100836.13;5114315;28;20034;-60
2022/08/17 06:55:46;;;;;;;24.35;21.83;;;;;;;21.95;71.53;100833.41;5112759;28;20031;-60
2022/08/17 06:58:17;;;;;;;25.45;22.77;;;;;;;22.00;71.75;100847.31;5113745;28;20034;-60
2022/08/17 07:00:45;;;;;;;25.05;22.70;;;;;;;21.92;71.98;100849.19;5114726;28;20023;-60
2022/08/17 07:03:39;;;;;;;25.33;22.77;;;;;;;21.88;71.85;100840.53;5130225;27;20027;-60
2022/08/17 07:06:18;;;;;;;23.48;21.02;;;;;;;21.87;72.51;100854.25;5113946;28;20020;-61
2022/08/17 07:08:56;;;;;;;22.85;20.38;;;;;;;22.00;71.38;100855.44;5112890;28;20379;-61
2022/08/17 07:11:26;;;;;;;22.80;20.37;;;;;;;22.07;71.03;100850.16;5114077;27;20027;-61
2022/08/17 07:14:03;;;;;;;23.08;20.88;;;;;;;22.10;70.63;100855.25;5113468;28;20265;-60
2022/08/17 07:16:41;;;;;;;24.10;21.60;;;;;;;22.07;70.98;100854.75;5114051;28;20019;-60
2022/08/17 07:19:08;;;;;;;23.10;19.92;;;;;;;22.01;71.59;100853.56;5113396;28;20069;-61
2022/08/17 07:21:48;;;;;;;22.60;20.08;;;;;;;22.06;71.30;100853.91;5112418;28;20016;-60
2022/08/17 07:24:34;;;;;;;22.50;20.20;;;;;;;22.05;71.47;100864.91;5112553;28;20023;-60
2022/08/17 07:27:13;;;;;;;23.52;21.05;;;;;;;21.95;71.55;100852.38;5113661;28;20092;-60
2022/08/17 07:29:53;;;;;;;24.73;20.83;;;;;;;21.92;71.12;100851.88;5111790;28;20543;-60
2022/08/17 07:32:28;;;;;;;22.42;20.13;;;;;;;21.95;71.55;100863.22;5113686;28;20068;-60
2022/08/17 07:35:30;;;;;;;22.75;20.42;;;;;;;21.83;72.22;100867.28;5111890;28;20027;-60
2022/08/17 07:38:13;;;;;;;21.23;19.27;;;;;;;21.94;71.79;100868.78;5113152;28;20015;-60
2022/08/17 07:40:42;;;;;;;23.05;20.27;;;;;;;21.97;71.96;100876.56;5113343;28;20503;-61
2022/08/17 07:43:24;;;;;;;22.17;19.95;;;;;;;21.94;72.05;100874.22;5111593;28;20031;-60
2022/08/17 07:49:18;;;;;;;25.63;19.60;;;;;;;22.11;71.38;100883.16;5112602;28;20039;-60
2022/08/17 07:51:46;;;;;;;22.55;20.25;;;;;;;22.08;71.56;100878.94;5113495;28;20513;-60
2022/08/17 07:54:15;;;;;;;24.63;19.08;;;;;;;22.15;71.25;100887.25;5113177;28;20098;-60
2022/08/17 07:56:40;;;;;;;20.95;18.48;;;;;;;22.22;71.29;100874.72;5111720;28;20051;-61
2022/08/17 07:59:11;;;;;;;20.00;18.00;;;;;;;22.31;71.28;100876.41;5112517;28;20534;-61
2022/08/17 08:01:37;;;;;;;20.48;18.38;;;;;;;22.40;70.52;100874.50;5112900;28;20023;-60
2022/08/17 08:04:21;;;;;;;21.75;19.58;;;;;;;22.41;70.92;100882.50;5094511;28;20051;-61
2022/08/17 08:06:53;;;;;;;21.73;19.52;;;;;;;22.37;70.73;100885.69;5111519;28;20227;-60
2022/08/17 08:09:43;;;;;;;22.52;19.75;;;;;;;22.33;70.99;100876.25;5112654;28;20355;-61
2022/08/17 08:12:24;;;;;;;24.25;20.52;;;;;;;22.31;71.25;100878.25;5112696;28;20059;-60
2022/08/17 08:14:59;;;;;;;23.42;19.42;;;;;;;22.43;70.49;100882.28;5112325;28;20032;-60
2022/08/17 08:17:34;;;;;;;22.23;19.67;;;;;;;22.44;70.38;100875.84;5112260;28;20023;-61
2022/08/17 08:20:05;;;;;;;24.40;19.02;;;;;;;22.54;70.80;100887.34;5111465;28;20102;-61
2022/08/17 08:22:39;;;;;;;23.92;21.15;;;;;;;22.60;69.38;100883.09;5112709;28;20027;-60
2022/08/17 08:25:16;;;;;;;23.73;20.83;;;;;;;22.52;69.73;100881.25;5112701;28;20444;-60
2022/08/17 08:27:44;;;;;;;23.08;20.83;;;;;;;22.48;70.01;100877.22;5111570;28;20023;-60
2022/08/17 08:30:17;;;;;;;24.15;21.65;;;;;;;22.45;70.22;100869.44;5111382;28;20038;-60
2022/08/17 08:33:28;;;;;;;23.20;20.98;;;;;;;22.46;70.63;100862.97;5145361;27;20029;-61
2022/08/17 08:36:22;;;;;;;25.15;22.40;;;;;;;22.37;70.63;100861.31;5112347;28;20470;-61
2022/08/17 08:39:14;;;;;;;22.95;20.70;;;;;;;22.40;70.75;100869.09;5088519;28;20032;-61
2022/08/17 08:42:01;;;;;;;24.58;22.17;;;;;;;22.43;70.18;100864.16;5112451;28;20051;-60
2022/08/17 08:45:09;;;;;;;23.25;20.83;;;;;;;22.59;70.17;100882.25;5111645;28;20023;-60
2022/08/17 08:48:01;;;;;;;24.95;21.92;;;;;;;22.64;69.62;100896.13;5111715;28;20229;-60
2022/08/17 08:50:55;;;;;;;24.33;21.85;;;;;;;22.70;69.55;100907.28;5106909;28;20118;-60
2022/08/17 08:53:26;;;;;;;23.25;20.58;;;;;;;22.74;68.79;100909.50;5112080;28;20366;-60
2022/08/17 08:56:00;;;;;;;23.92;21.52;;;;;;;22.85;68.69;100910.97;5112064;28;20058;-61
2022/08/17 08:59:16;;;;;;;26.65;22.83;;;;;;;22.90;68.33;100906.69;5111539;28;20031;-60
2022/08/17 09:01:50;;;;;;;24.50;21.27;;;;;;;22.90;68.50;100903.16;5085538;28;20532;-60
2022/08/17 09:04:44;;;;;;;28.90;22.90;;;;;;;22.88;68.29;100902.47;5110777;28;20028;-60
2022/08/17 09:07:33;;;;;;;28.42;24.63;;;;;;;22.80;68.51;100895.22;5110760;28;20028;-60
2022/08/17 09:10:33;;;;;;;27.38;24.58;;;;;;;22.84;67.94;100895.72;5112087;28;20020;-61
2022/08/17 09:13:12;;;;;;;26.50;23.75;;;;;;;22.90;68.42;100900.44;5112072;28;20454;-60
2022/08/17 09:15:56;;;;;;;24.90;22.33;;;;;;;22.86;68.95;100912.69;5111578;28;20049;-60
2022/08/17 09:18:34;;;;;;;25.33;22.65;;;;;;;22.94;68.17;100917.19;5111724;28;20501;-60
2022/08/17 09:21:13;;;;;;;24.00;21.58;;;;;;;22.87;68.50;100912.47;5112229;28;20102;-60
2022/08/17 09:23:58;;;;;;;27.98;24.48;;;;;;;22.87;68.45;100904.34;5111728;28;20496;-60
2022/08/17 09:26:38;;;;;;;26.42;23.73;;;;;;;22.86;68.31;100913.50;5111782;28;20358;-60
2022/08/17 09:29:11;;;;;;;25.88;23.17;;;;;;;22.87;68.17;100920.63;5110052;28;20036;-61
2022/08/17 09:31:46;;;;;;;24.23;21.92;;;;;;;22.91;68.34;100929.25;5110910;28;20035;-60
2022/08/17 09:34:17;;;;;;;25.30;21.85;;;;;;;22.92;69.57;100940.97;5111949;28;20106;-60
2022/08/17 09:37:16;;;;;;;24.98;22.55;;;;;;;23.00;70.00;100940.94;5111845;28;20026;-60
2022/08/17 09:40:08;;;;;;;24.95;22.35;;;;;;;22.96;70.19;100958.59;5114546;28;20039;-61
2022/08/17 09:42:46;;;;;;;30.23;23.10;;;;;;;22.87;71.20;100968.59;5115375;27;20103;-61
2022/08/17 09:45:26;;;;;;;25.38;22.60;;;;;;;22.87;69.79;100982.16;5115689;28;20024;-61
2022/08/17 09:48:06;;;;;;;26.10;23.45;;;;;;;22.80;71.22;101000.16;5115528;28;20041;-60
2022/08/17 09:50:38;;;;;;;25.38;22.88;;;;;;;22.75;71.64;101005.25;5115632;28;20027;-61
2022/08/17 09:53:04;;;;;;;24.73;22.23;;;;;;;22.63;72.09;101005.59;5115358;28;20027;-60
2022/08/17 09:55:51;;;;;;;27.40;23.25;;;;;;;22.63;72.35;101002.91;5113878;28;20444;-60
2022/08/17 09:58:25;;;;;;;27.63;24.77;;;;;;;22.54;73.15;100990.38;5114923;28;20489;-61
2022/08/17 10:01:01;;;;;;;27.67;25.05;;;;;;;22.48;75.38;100973.94;5115603;28;20458;-61
2022/08/17 10:04:07;;;;;;;29.17;26.05;;;;;;;22.52;76.56;100970.72;5115024;28;20034;-61
2022/08/17 10:06:46;;;;;;;30.65;26.23;;;;;;;22.36;78.03;100970.75;5115240;28;20024;-61
2022/08/17 10:09:23;;;;;;;33.65;27.13;;;;;;;22.34;78.03;100978.19;5115232;28;20024;-61
2022/08/17 10:12:18;;;;;;;30.35;27.35;;;;;;;22.37;78.19;100981.41;5115189;28;20027;-61
2022/08/17 10:15:03;;;;;;;31.45;26.40;;;;;;;22.36;79.61;100981.59;5114434;28;20027;-60
2022/08/17 10:17:52;;;;;;;29.67;26.58;;;;;;;22.35;79.32;100971.75;5113579;28;20024;-61
2022/08/17 10:20:28;;;;;;;32.08;28.77;;;;;;;22.32;81.00;100964.81;5113728;28;20031;-61
2022/08/17 10:26:23;;;;;;;33.35;29.95;;;;;;;22.31;82.31;100971.25;5115039;28;20567;-61
2022/08/17 10:29:03;;;;;;;32.08;28.65;;;;;;;22.23;83.19;100966.66;5114077;27;20490;-61
2022/08/17 10:31:32;;;;;;;31.48;28.23;;;;;;;;;;5114751;28;20027;-61
2022/08/17 10:34:36;;;;;;;34.10;30.45;;;;;;;22.28;82.80;100979.72;5113675;28;20035;-61
2022/08/17 10:37:07;;;;;;;32.90;29.42;;;;;;;22.02;84.37;100979.00;5113141;28;20363;-61
2022/08/17 10:40:06;;;;;;;32.70;29.38;;;;;;;22.09;83.45;100971.88;5114578;28;20482;-61
2022/08/17 10:42:52;;;;;;;33.75;30.35;;;;;;;22.03;84.73;100959.88;5113820;27;20031;-61
2022/08/17 10:45:33;;;;;;;34.60;31.05;;;;;;;21.99;85.81;100962.06;5103423;28;20070;-61
2022/08/17 10:48:20;;;;;;;33.58;30.20;;;;;;;21.91;86.19;100945.84;5114473;28;20016;-61
2022/08/17 10:50:56;;;;;;;35.00;31.70;;;;;;;21.96;85.85;100939.91;5106421;27;20042;-61
2022/08/17 10:53:30;;;;;;;34.05;30.73;;;;;;;21.94;85.56;100931.09;5114333;28;20020;-61
2022/08/17 10:56:11;;;;;;;35.42;31.95;;;;;;;21.90;85.44;100927.03;5113915;28;20139;-61
2022/08/17 10:58:55;;;;;;;35.58;31.90;;;;;;;21.81;86.20;100928.03;5113686;28;20032;-61
2022/08/17 11:01:32;;;;;;;34.13;30.73;;;;;;;21.75;87.39;100919.56;5114312;28;20102;-61
2022/08/17 11:04:20;;;;;;;35.08;31.55;;;;;;;21.63;87.71;100926.34;5113918;28;20038;-61
2022/08/17 11:07:14;;;;;;;34.05;30.00;;;;;;;21.74;86.32;100930.59;5114096;28;20016;-61
2022/08/17 11:10:19;;;;;;;33.30;29.83;;;;;;;21.68;86.72;100937.50;5113932;27;20023;-61
2022/08/17 11:13:22;;;;;;;33.47;30.00;;;;;;;21.71;86.14;100928.22;5113339;28;20470;-61
2022/08/17 11:16:07;;;;;;;33.70;30.30;;;;;;;21.55;86.22;100929.84;5114096;27;20028;-61
2022/08/17 11:18:52;;;;;;;32.97;29.75;;;;;;;21.62;87.82;100940.00;5112317;28;20512;-61
2022/08/17 11:21:39;;;;;;;34.67;30.98;;;;;;;21.54;87.94;100946.28;5113942;28;20047;-61
2022/08/17 11:24:13;;;;;;;33.22;30.05;;;;;;;21.66;86.73;100944.09;5113709;27;20112;-60
2022/08/17 11:26:47;;;;;;;32.90;29.50;;;;;;;21.64;86.59;100955.09;5113459;28;20043;-61
2022/08/17 11:29:53;;;;;;;33.03;29.65;;;;;;;21.66;86.37;100968.47;5113287;28;20032;-61
2022/08/17 11:32:30;;;;;;;31.45;28.48;;;;;;;21.65;85.23;100975.75;5091714;28;20035;-61
2022/08/17 11:35:20;;;;;;;32.38;29.10;;;;;;;21.65;85.47;100974.88;5113592;28;20406;-61
2022/08/17 11:38:04;;;;;;;31.85;28.75;;;;;;;21.67;86.29;100986.41;5112185;28;20024;-61
2022/08/17 11:41:07;;;;;;;34.38;30.77;;;;;;;21.71;87.78;100991.31;5113025;28;20031;-61
2022/08/17 11:43:47;;;;;;;34.75;31.40;;;;;;;21.74;88.34;100993.69;5112641;28;20378;-61
2022/08/17 11:52:51;;;;;;;33.40;29.95;;;;;;;21.95;86.73;101004.06;5113422;28;20069;-61
2022/08/17 11:55:26;;;;;;;32.53;29.27;;;;;;;22.02;86.28;101003.38;5112931;28;20035;-61
2022/08/17 11:58:00;;;;;;;32.35;29.23;;;;;;;22.05;86.01;101014.72;5112423;28;20044;-61
2022/08/17 12:00:44;;;;;;;32.30;29.00;;;;;;;22.08;86.23;101017.09;5111570;28;20020;-61
2022/08/17 12:03:42;;;;;;;32.13;29.02;;;;;;;22.00;84.75;101017.06;5112579;28;20081;-61
2022/08/17 12:06:26;;;;;;;35.20;31.43;;;;;;;21.95;85.76;101019.47;5112841;28;20032;-61
2022/08/17 12:09:11;;;;;;;33.50;30.20;;;;;;;22.05;86.69;101020.16;5110789;28;20039;-61
2022/08/17 12:12:03;;;;;;;32.78;29.58;;;;;;;22.07;86.95;101015.41;5112777;28;20068;-61
2022/08/17 12:14:31;;;;;;;32.85;29.38;;;;;;;21.98;87.47;101027.25;5112085;28;20027;-61